createdAt,value
2023-04-25T00:00:43.708Z,0.80
2023-04-25T00:03:24.629Z,1.00
2023-04-25T00:05:55.882Z,1.90
2023-04-25T00:08:27.342Z,1.60
2023-04-25T00:10:58.206Z,1.50
2023-04-25T00:13:28.903Z,1.10
2023-04-25T00:15:59.630Z,3.30
2023-04-25T00:18:30.280Z,1.40
2023-04-25T00:21:01.024Z,1.80
2023-04-25T00:23:31.735Z,2.80
2023-04-25T00:26:03.177Z,4.00
2023-04-25T00:28:33.810Z,1.60
2023-04-25T00:31:04.565Z,3.50
2023-04-25T00:33:35.208Z,2.10
2023-04-25T00:36:07.956Z,2.20
2023-04-25T00:38:38.611Z,2.30
2023-04-25T00:41:09.834Z,2.00
2023-04-25T00:43:40.728Z,4.30
2023-04-25T00:46:11.512Z,3.10
2023-04-25T00:48:42.236Z,4.50
2023-04-25T00:51:17.415Z,2.70
2023-04-25T00:53:48.874Z,3.20
2023-04-25T00:56:20.572Z,1.90
2023-04-25T00:58:54.052Z,3.30
2023-04-25T01:01:25.161Z,3.80
2023-04-25T01:03:57.152Z,2.90
2023-04-25T01:06:28.447Z,3.40
2023-04-25T01:08:59.951Z,4.50
2023-04-25T01:11:30.627Z,3.60
2023-04-25T01:14:01.649Z,6.00
2023-04-25T01:19:02.100Z,3.00
2023-04-25T01:21:32.765Z,2.30
2023-04-25T01:24:03.756Z,2.40
2023-04-25T01:29:04.840Z,3.90
2023-04-25T01:31:36.090Z,2.90
2023-04-25T01:34:06.771Z,2.40
2023-04-25T01:36:37.494Z,3.70
2023-04-25T01:39:08.352Z,3.20
2023-04-25T01:41:39.412Z,6.00
2023-04-25T01:46:39.379Z,4.90
2023-04-25T01:49:10.200Z,3.60
2023-04-25T01:51:41.225Z,3.10
2023-04-25T01:56:41.950Z,5.60
2023-04-25T01:59:12.976Z,4.60
2023-04-25T02:04:13.120Z,5.60
2023-04-25T02:09:13.085Z,6.00
2023-04-25T02:11:43.738Z,4.60
2023-04-25T02:14:14.351Z,5.40
2023-04-25T02:16:45.165Z,5.30
2023-04-25T02:19:16.277Z,4.10
2023-04-25T02:24:16.314Z,6.80
2023-04-25T02:26:47.005Z,4.80
2023-04-25T02:29:17.869Z,4.40
2023-04-25T02:31:49.135Z,4.00
2023-04-25T02:36:51.220Z,5.00
2023-04-25T02:39:21.885Z,4.10
2023-04-25T02:41:52.657Z,3.80
2023-04-25T02:44:23.254Z,8.10
2023-04-25T02:46:54.133Z,7.00
2023-04-25T02:49:24.839Z,6.00
2023-04-25T02:51:55.483Z,4.90
2023-04-25T02:54:26.144Z,4.40
2023-04-25T02:56:56.937Z,6.60
2023-04-25T02:59:27.579Z,5.20
2023-04-25T03:01:58.309Z,5.60
2023-04-25T03:04:29.485Z,7.30
2023-04-25T03:07:00.504Z,5.10
2023-04-25T03:09:31.117Z,4.30
2023-04-25T03:12:01.780Z,5.50
2023-04-25T03:14:32.419Z,7.00
2023-04-25T03:17:03.170Z,5.50
2023-04-25T03:19:33.808Z,10.20
2023-04-25T03:22:04.535Z,5.20
2023-04-25T03:24:35.121Z,8.20
2023-04-25T03:27:05.842Z,7.40
2023-04-25T03:29:36.472Z,6.00
2023-04-25T03:32:07.452Z,5.10
2023-04-25T03:34:38.102Z,6.20
2023-04-25T03:37:08.763Z,7.10
2023-04-25T03:39:39.474Z,6.60
2023-04-25T03:42:10.144Z,4.60
2023-04-25T03:44:40.753Z,5.30
2023-04-25T03:47:11.488Z,7.30
2023-04-25T03:49:42.477Z,4.50
2023-04-25T03:54:42.305Z,5.60
2023-04-25T03:57:13.172Z,6.00
2023-04-25T03:59:44.167Z,7.20
2023-04-25T04:04:44.375Z,6.50
2023-04-25T04:07:15.408Z,5.00
2023-04-25T04:09:46.311Z,6.40
2023-04-25T04:12:16.961Z,5.90
2023-04-25T04:14:47.596Z,5.90
2023-04-25T04:17:18.863Z,10.20
2023-04-25T04:19:49.537Z,5.90
2023-04-25T04:22:20.306Z,5.90
2023-04-25T04:24:51.063Z,8.30
2023-04-25T04:27:22.407Z,6.40
2023-04-25T04:29:53.097Z,5.30
2023-04-25T04:32:23.861Z,5.30
2023-04-25T04:34:54.568Z,5.90
2023-04-25T04:37:25.268Z,5.70
2023-04-25T04:39:56.005Z,5.50
2023-04-25T04:42:26.768Z,7.30
2023-04-25T04:44:57.371Z,4.60
2023-04-25T04:47:28.046Z,7.10
2023-04-25T04:49:58.705Z,6.80
2023-04-25T04:52:29.379Z,6.00
2023-04-25T04:55:00.072Z,5.90
2023-04-25T04:57:32.340Z,8.20
2023-04-25T05:00:03.145Z,10.80
2023-04-25T05:02:34.552Z,7.90
2023-04-25T05:05:05.818Z,8.50
2023-04-25T05:10:07.269Z,5.80
2023-04-25T05:12:38.062Z,7.90
2023-04-25T05:15:09.886Z,6.20
2023-04-25T05:18:00.458Z,7.50
2023-04-25T05:20:31.210Z,7.30
2023-04-25T05:23:02.140Z,8.70
2023-04-25T05:25:32.782Z,13.30
2023-04-25T05:28:03.528Z,7.80
2023-04-25T05:30:34.834Z,8.30
2023-04-25T05:33:05.746Z,6.80
2023-04-25T05:35:37.178Z,7.90
2023-04-25T05:38:08.350Z,9.20
2023-04-25T05:41:04.857Z,7.10
2023-04-25T05:43:35.845Z,5.60
2023-04-25T05:46:06.605Z,8.90
2023-04-25T05:48:37.362Z,7.90
2023-04-25T05:51:08.253Z,6.50
2023-04-25T05:53:38.899Z,9.50
2023-04-25T05:56:10.942Z,11.00
2023-04-25T05:58:41.599Z,9.00
2023-04-25T06:01:12.852Z,10.50
2023-04-25T06:03:43.749Z,6.90
2023-04-25T06:06:35.396Z,9.50
2023-04-25T06:09:08.809Z,7.90
2023-04-25T06:11:39.557Z,9.70
2023-04-25T06:14:10.257Z,7.90
2023-04-25T06:16:40.900Z,6.40
2023-04-25T06:19:11.670Z,4.90
2023-04-25T06:21:42.637Z,6.10
2023-04-25T06:24:13.394Z,9.10
2023-04-25T06:26:44.118Z,8.80
2023-04-25T06:29:14.859Z,4.80
2023-04-25T06:31:45.726Z,9.00
2023-04-25T06:34:16.707Z,9.80
2023-04-25T06:36:47.373Z,8.40
2023-04-25T06:39:20.832Z,6.80
2023-04-25T06:41:51.551Z,10.10
2023-04-25T06:44:22.267Z,6.80
2023-04-25T06:46:53.117Z,10.20
2023-04-25T06:51:53.070Z,8.50
2023-04-25T06:54:23.807Z,8.40
2023-04-25T06:56:54.831Z,5.60
2023-04-25T06:59:25.836Z,7.80
2023-04-25T07:02:02.709Z,8.20
2023-04-25T07:04:33.814Z,8.10
2023-04-25T07:07:04.736Z,6.40
2023-04-25T07:09:37.321Z,5.50
2023-04-25T07:12:08.630Z,5.40
2023-04-25T07:14:42.245Z,9.10
2023-04-25T07:17:13.156Z,6.10
2023-04-25T07:22:13.001Z,8.50
2023-04-25T07:24:43.752Z,8.00
2023-04-25T07:27:14.561Z,7.30
2023-04-25T07:29:45.250Z,6.40
2023-04-25T07:32:16.271Z,8.70
2023-04-25T07:34:47.400Z,6.20
2023-04-25T07:39:47.342Z,6.40
2023-04-25T07:42:18.475Z,9.80
2023-04-25T07:44:49.502Z,6.70
2023-04-25T07:47:20.564Z,6.40
2023-04-25T07:49:51.417Z,8.00
2023-04-25T07:54:51.279Z,5.40
2023-04-25T07:57:21.981Z,6.80
2023-04-25T07:59:52.717Z,6.60
2023-04-25T08:02:26.410Z,12.00
2023-04-25T08:07:26.602Z,8.90
2023-04-25T08:09:58.079Z,8.20
2023-04-25T08:12:28.944Z,14.40
2023-04-25T08:17:28.923Z,8.90
2023-04-25T08:19:59.645Z,7.50
2023-04-25T08:22:31.302Z,8.90
2023-04-25T08:25:02.039Z,7.40
2023-04-25T08:27:32.685Z,6.90
2023-04-25T08:30:03.633Z,8.90
2023-04-25T08:35:03.551Z,8.30
2023-04-25T08:37:34.178Z,9.00
2023-04-25T08:40:07.729Z,10.80
2023-04-25T08:42:41.872Z,8.20
2023-04-25T08:45:13.310Z,7.50
2023-04-25T08:47:46.560Z,8.50
2023-04-25T08:50:17.880Z,6.40
2023-04-25T08:52:50.814Z,6.70
2023-04-25T08:55:23.415Z,5.20
2023-04-25T08:57:55.875Z,10.90
2023-04-25T09:00:26.711Z,10.70
2023-04-25T09:05:27.458Z,6.00
2023-04-25T09:07:58.134Z,4.50
2023-04-25T09:10:29.219Z,7.20
2023-04-25T09:13:08.437Z,5.40
2023-04-25T09:15:49.736Z,4.70
2023-04-25T09:18:30.708Z,7.30
2023-04-25T09:21:13.727Z,7.80
2023-04-25T09:23:47.966Z,6.80
2023-04-25T09:26:19.826Z,5.80
2023-04-25T09:29:05.502Z,5.90
2023-04-25T09:31:36.388Z,6.50
2023-04-25T09:36:37.059Z,4.90
2023-04-25T09:39:14.916Z,5.30
2023-04-25T09:41:45.862Z,6.00
2023-04-25T09:44:23.938Z,3.90
2023-04-25T09:46:54.967Z,4.30
2023-04-25T09:49:27.461Z,6.30
2023-04-25T09:51:58.948Z,5.30
2023-04-25T09:54:30.209Z,7.50
2023-04-25T09:57:08.351Z,4.20
2023-04-25T09:59:54.613Z,9.10
2023-04-25T10:02:27.109Z,4.10
2023-04-25T10:04:59.788Z,8.40
2023-04-25T10:07:32.776Z,5.10
2023-04-25T10:10:05.208Z,6.30
2023-04-25T10:12:39.887Z,5.30
2023-04-25T10:15:16.027Z,3.90
2023-04-25T10:17:47.433Z,2.50
2023-04-25T10:20:18.294Z,3.50
2023-04-25T10:22:51.384Z,4.30
2023-04-25T10:25:22.381Z,4.00
2023-04-25T10:27:54.587Z,4.10
2023-04-25T10:30:25.459Z,6.10
2023-04-25T10:32:57.335Z,4.70
2023-04-25T10:35:30.015Z,6.10
2023-04-25T10:38:05.581Z,3.60
2023-04-25T10:40:36.816Z,4.60
2023-04-25T10:43:37.797Z,5.60
2023-04-25T10:46:23.530Z,5.10
2023-04-25T10:48:55.432Z,6.00
2023-04-25T10:51:54.296Z,5.10
2023-04-25T10:54:26.847Z,6.10
2023-04-25T10:56:59.417Z,5.60
2023-04-25T10:59:31.690Z,6.50
2023-04-25T11:02:13.931Z,5.10
2023-04-25T11:04:45.539Z,5.00
2023-04-25T11:07:24.856Z,4.60
2023-04-25T11:09:56.071Z,6.00
2023-04-25T11:12:27.369Z,4.80
2023-04-25T11:15:09.451Z,4.70
2023-04-25T11:17:48.647Z,4.80
2023-04-25T11:20:21.568Z,5.30
2023-04-25T11:22:52.964Z,4.20
2023-04-25T11:25:26.563Z,4.70
2023-04-25T11:27:58.991Z,4.20
2023-04-25T11:30:31.086Z,4.60
2023-04-25T11:33:01.957Z,5.60
2023-04-25T11:38:03.759Z,4.00
2023-04-25T11:40:34.474Z,3.10
2023-04-25T11:43:05.504Z,4.00
2023-04-25T11:45:37.606Z,3.20
2023-04-25T11:48:08.390Z,7.30
2023-04-25T11:50:41.399Z,3.50
2023-04-25T11:53:12.262Z,3.80
2023-04-25T11:58:32.696Z,8.30
2023-04-25T12:01:03.402Z,11.20
2023-04-25T12:03:34.176Z,4.60
2023-04-25T12:11:21.019Z,6.40
2023-04-25T12:13:54.154Z,3.30
2023-04-25T12:16:25.581Z,4.80
2023-04-25T12:18:56.528Z,4.90
2023-04-25T12:21:30.834Z,4.40
2023-04-25T12:24:11.833Z,6.20
2023-04-25T12:32:42.789Z,7.80
2023-04-25T12:35:11.548Z,8.40
2023-04-25T12:37:44.121Z,3.20
2023-04-25T12:40:19.657Z,3.10
2023-04-25T12:42:50.364Z,2.50
2023-04-25T12:45:23.007Z,1.90
2023-04-25T12:47:53.750Z,5.00
2023-04-25T12:50:24.444Z,4.50
2023-04-25T12:52:55.111Z,4.80
2023-04-25T12:55:27.398Z,2.40
2023-04-25T12:57:58.051Z,5.80
2023-04-25T13:00:28.894Z,4.60
2023-04-25T13:03:00.189Z,3.40
2023-04-25T13:05:31.211Z,4.50
2023-04-25T13:08:01.952Z,3.50
2023-04-25T13:10:34.750Z,6.00
2023-04-25T13:13:05.576Z,3.40
2023-04-25T13:15:40.688Z,6.00
2023-04-25T13:18:11.489Z,5.30
2023-04-25T13:21:13.513Z,6.30
2023-04-25T13:23:44.384Z,4.70
2023-04-25T13:26:15.194Z,7.60
2023-04-25T13:28:45.891Z,5.50
2023-04-25T13:31:17.134Z,8.60
2023-04-25T13:33:47.857Z,7.90
2023-04-25T13:36:18.573Z,6.20
2023-04-25T13:38:49.303Z,6.30
2023-04-25T13:41:20.297Z,7.30
2023-04-25T13:43:51.245Z,8.30
2023-04-25T13:47:18.426Z,9.40
2023-04-25T13:51:27.500Z,6.60
2023-04-25T13:57:16.578Z,9.90
2023-04-25T13:59:47.232Z,12.00
2023-04-25T14:02:17.950Z,13.10
2023-04-25T14:04:51.517Z,17.30
2023-04-25T14:07:22.335Z,9.60
2023-04-25T14:09:53.043Z,13.00
2023-04-25T14:12:23.743Z,11.20
2023-04-25T14:14:57.197Z,10.30
2023-04-25T14:17:27.923Z,12.10
2023-04-25T14:19:58.518Z,14.50
2023-04-25T14:22:29.360Z,15.30
2023-04-25T14:24:59.951Z,12.20
2023-04-25T14:27:31.123Z,11.70
2023-04-25T14:30:01.806Z,11.80
2023-04-25T14:32:32.489Z,12.70
2023-04-25T14:35:41.702Z,18.30
2023-04-25T14:38:12.401Z,14.20
2023-04-25T14:40:43.394Z,12.70
2023-04-25T14:43:14.117Z,9.20
2023-04-25T14:45:45.846Z,10.70
2023-04-25T14:48:17.388Z,12.40
2023-04-25T14:50:48.158Z,14.60
2023-04-25T14:53:19.035Z,15.30
2023-04-25T14:58:18.784Z,11.00
2023-04-25T15:00:49.804Z,14.60
2023-04-25T15:03:21.229Z,14.80
2023-04-25T15:08:21.116Z,12.30
2023-04-25T15:10:53.750Z,11.30
2023-04-25T15:13:24.527Z,6.50
2023-04-25T15:16:15.782Z,13.90
2023-04-25T15:18:46.719Z,10.60
2023-04-25T15:23:46.840Z,11.80
2023-04-25T15:26:17.520Z,8.90
2023-04-25T15:28:48.251Z,8.80
2023-04-25T15:31:19.198Z,10.90
2023-04-25T15:36:21.946Z,9.10
2023-04-25T15:38:52.741Z,12.50
2023-04-25T15:41:24.211Z,11.60
2023-04-25T15:43:55.114Z,8.90
2023-04-25T15:46:26.000Z,12.90
2023-04-25T15:48:56.786Z,11.10
2023-04-25T15:51:30.094Z,7.80
2023-04-25T15:56:30.085Z,10.30
2023-04-25T15:59:00.965Z,15.50
2023-04-25T16:01:32.002Z,13.80
2023-04-25T16:06:32.146Z,10.10
2023-04-25T16:09:02.785Z,11.20
2023-04-25T16:11:33.469Z,11.90
2023-04-25T16:14:04.195Z,12.90
2023-04-25T16:16:37.229Z,11.00
2023-04-25T16:19:16.172Z,14.10
2023-04-25T16:21:51.490Z,12.70
2023-04-25T16:24:22.277Z,11.30
2023-04-25T16:26:52.962Z,8.20
2023-04-25T16:29:23.635Z,11.60
2023-04-25T16:31:54.442Z,11.90
2023-04-25T16:36:57.491Z,11.00
2023-04-25T16:39:28.308Z,9.10
2023-04-25T16:42:04.088Z,8.00
2023-04-25T16:44:35.401Z,9.90
2023-04-25T16:47:06.351Z,12.50
2023-04-25T16:49:37.284Z,8.90
2023-04-25T16:52:08.136Z,11.80
2023-04-25T16:54:39.087Z,10.90
2023-04-25T16:57:09.685Z,9.10
2023-04-25T16:59:40.983Z,7.10
2023-04-25T17:02:14.641Z,11.00
2023-04-25T17:04:45.576Z,12.20
2023-04-25T17:07:16.287Z,12.60
2023-04-25T17:09:46.956Z,10.10
2023-04-25T17:12:20.582Z,12.70
2023-04-25T17:14:54.089Z,9.60
2023-04-25T17:17:24.801Z,11.40
2023-04-25T17:19:55.651Z,8.90
2023-04-25T17:22:26.638Z,9.80
2023-04-25T17:24:57.715Z,12.40
2023-04-25T17:27:28.442Z,9.60
2023-04-25T17:29:59.192Z,10.70
2023-04-25T17:32:30.265Z,14.10
2023-04-25T17:35:00.941Z,10.10
2023-04-25T17:37:31.706Z,14.60
2023-04-25T17:40:02.891Z,10.10
2023-04-25T17:42:33.551Z,12.40
2023-04-25T17:45:04.645Z,12.60
2023-04-25T17:47:35.843Z,8.50
2023-04-25T17:50:08.621Z,12.90
2023-04-25T17:52:39.391Z,12.10
2023-04-25T17:55:18.257Z,9.90
2023-04-25T17:57:48.932Z,9.00
2023-04-25T18:00:21.680Z,10.90
2023-04-25T18:02:58.894Z,8.40
2023-04-25T18:05:31.411Z,11.80
2023-04-25T18:08:07.803Z,10.20
2023-04-25T18:10:38.528Z,7.10
2023-04-25T18:13:11.714Z,8.80
2023-04-25T18:15:42.530Z,6.40
2023-04-25T18:18:13.390Z,10.90
2023-04-25T18:20:47.102Z,10.40
2023-04-25T18:23:18.113Z,15.70
2023-04-25T18:25:59.026Z,11.00
2023-04-25T18:28:29.781Z,12.30
2023-04-25T18:31:00.541Z,15.30
2023-04-25T18:33:31.214Z,10.90
2023-04-25T18:36:01.851Z,11.90
2023-04-25T18:38:36.025Z,12.30
2023-04-25T18:41:27.393Z,15.80
2023-04-25T18:43:58.871Z,11.10
2023-04-25T18:46:31.258Z,9.40
2023-04-25T18:49:02.598Z,14.10
2023-04-25T18:51:57.002Z,10.60
2023-04-25T18:54:27.707Z,12.00
2023-04-25T18:56:58.405Z,9.90
2023-04-25T18:59:29.499Z,13.90
2023-04-25T19:02:00.344Z,11.10
2023-04-25T19:04:31.125Z,12.10
2023-04-25T19:09:31.106Z,14.20
2023-04-25T19:12:24.395Z,13.40
2023-04-25T19:14:55.211Z,13.50
2023-04-25T19:17:30.136Z,12.40
2023-04-25T19:20:01.044Z,14.90
2023-04-25T19:22:32.187Z,9.90
2023-04-25T19:25:10.557Z,8.80
2023-04-25T19:28:02.890Z,9.60
2023-04-25T19:30:36.409Z,7.40
2023-04-25T19:33:07.237Z,7.60
2023-04-25T19:35:37.899Z,7.40
2023-04-25T19:38:08.623Z,6.10
2023-04-25T19:40:39.260Z,9.50
2023-04-25T19:43:14.567Z,11.60
2023-04-25T19:45:45.240Z,8.20
2023-04-25T19:48:15.906Z,10.10
2023-04-25T19:50:46.522Z,11.60
2023-04-25T19:53:20.246Z,13.80
2023-04-25T19:55:53.274Z,9.30
2023-04-25T19:58:24.458Z,7.40
2023-04-25T20:00:55.081Z,8.10
2023-04-25T20:03:26.187Z,7.90
2023-04-25T20:05:56.937Z,8.50
2023-04-25T20:08:32.957Z,15.50
2023-04-25T20:11:03.729Z,14.10
2023-04-25T20:13:34.448Z,16.50
2023-04-25T20:16:05.416Z,17.40
2023-04-25T20:18:36.093Z,13.00
2023-04-25T20:21:07.092Z,16.10
2023-04-25T20:23:37.872Z,22.00
2023-04-25T20:26:08.533Z,17.70
2023-04-25T20:28:39.480Z,19.20
2023-04-25T20:31:11.427Z,15.50
2023-04-25T20:33:43.829Z,12.10
2023-04-25T20:36:14.604Z,12.50
2023-04-25T20:38:45.398Z,13.20
2023-04-25T20:41:16.056Z,14.20
2023-04-25T20:44:19.953Z,13.90
2023-04-25T20:49:46.496Z,8.50
2023-04-25T20:52:17.580Z,10.60
2023-04-25T20:57:17.439Z,15.80
2023-04-25T20:59:48.894Z,16.40
2023-04-25T21:02:20.980Z,12.80
2023-04-25T21:04:51.837Z,15.50
2023-04-25T21:07:22.536Z,13.70
2023-04-25T21:09:53.443Z,15.30
2023-04-25T21:12:24.180Z,12.70
2023-04-25T21:14:54.889Z,15.90
2023-04-25T21:17:45.618Z,14.70
2023-04-25T21:20:17.063Z,13.30
2023-04-25T21:22:51.178Z,13.80
2023-04-25T21:25:25.692Z,12.60
2023-04-25T21:27:56.641Z,12.60
2023-04-25T21:30:30.034Z,10.30
2023-04-25T21:33:00.957Z,9.30
2023-04-25T21:35:31.779Z,11.20
2023-04-25T21:38:02.447Z,9.80
2023-04-25T21:40:33.142Z,10.90
2023-04-25T21:43:03.830Z,9.80
2023-04-25T21:45:38.368Z,10.60
2023-04-25T21:48:15.432Z,11.60
2023-04-25T21:50:46.667Z,7.30
2023-04-25T21:53:17.355Z,10.80
2023-04-25T21:55:48.102Z,10.70
2023-04-25T21:58:21.013Z,9.50
2023-04-25T22:00:51.710Z,9.80
2023-04-25T22:03:24.939Z,7.50
2023-04-25T22:05:55.686Z,9.00
2023-04-25T22:08:26.289Z,7.70
2023-04-25T22:10:56.922Z,6.90
2023-04-25T22:13:27.530Z,8.20
2023-04-25T22:15:58.160Z,11.30
2023-04-25T22:18:28.829Z,9.10
2023-04-25T22:20:59.445Z,11.00
2023-04-25T22:23:30.030Z,9.30
2023-04-25T22:26:00.672Z,10.10
2023-04-25T22:28:31.501Z,11.00
2023-04-25T22:31:02.302Z,5.80
2023-04-25T22:33:32.977Z,6.00
2023-04-25T22:36:04.268Z,9.60
2023-04-25T22:38:34.917Z,5.40
2023-04-25T22:41:05.637Z,6.00
2023-04-25T22:43:37.117Z,8.40
2023-04-25T22:46:14.961Z,9.90
2023-04-25T22:48:46.053Z,5.20
2023-04-25T22:53:45.863Z,5.50
2023-04-25T22:56:16.631Z,6.00
2023-04-25T22:58:47.252Z,11.00
2023-04-25T23:01:19.325Z,11.20
2023-04-25T23:03:50.304Z,6.80
2023-04-25T23:06:21.091Z,6.80
2023-04-25T23:08:52.078Z,10.40
2023-04-25T23:11:23.167Z,7.70
2023-04-25T23:13:53.871Z,7.10
2023-04-25T23:16:24.527Z,9.30
2023-04-25T23:18:55.167Z,11.60
2023-04-25T23:21:25.802Z,9.60
2023-04-25T23:23:56.448Z,9.20
2023-04-25T23:26:27.149Z,12.50
2023-04-25T23:28:57.751Z,8.60
2023-04-25T23:31:28.438Z,7.80
2023-04-25T23:33:59.090Z,8.40
2023-04-25T23:36:29.732Z,7.60
2023-04-25T23:39:00.318Z,10.30
2023-04-25T23:41:30.978Z,7.70
2023-04-25T23:46:31.207Z,7.60
2023-04-25T23:49:01.961Z,7.80
2023-04-25T23:51:32.609Z,7.70
2023-04-25T23:54:05.319Z,10.20
2023-04-25T23:56:36.269Z,7.00
2023-04-25T23:59:07.046Z,7.70
